Terminal Aerodrome Forecast
Issued by NWS

Current Version | Previous Version | Text Only | Print | Product List | Glossary On
Versions: 1 2 3 4 5 6 7 8 9 10 11 12 13 14 15
000
FTUS43 KDDC 280520
TAFGCK
TAF
KGCK 280520Z 2806/2906 36020G29KT P6SM OVC024
     FM280800 22008KT P6SM SCT035
     FM281400 30011KT P6SM SCT150
     FM282100 29007KT P6SM VCSH BKN200
     FM290000 02011KT P6SM RA OVC080
     FM290400 03013KT 6SM RA OVC020=

USA.gov is the U.S. government's official web portal to all federal, state and local government web resources and services.